createdAt,value
2022-10-11T00:01:20.151Z,98999.16
2022-10-11T00:04:23.273Z,99002.72
2022-10-11T00:07:25.922Z,98993.09
2022-10-11T00:10:28.899Z,99006.53
2022-10-11T00:13:31.332Z,98999.47
2022-10-11T00:16:34.502Z,98981.81
2022-10-11T00:19:37.244Z,98976.47
2022-10-11T00:22:41.016Z,98968.50
2022-10-11T00:25:43.584Z,98978.25
2022-10-11T00:28:46.440Z,98985.88
2022-10-11T00:31:49.004Z,98984.19
2022-10-11T00:34:51.857Z,98985.22
2022-10-11T00:37:56.266Z,98990.66
2022-10-11T00:41:00.329Z,98980.28
2022-10-11T00:44:24.350Z,98970.56
2022-10-11T00:47:27.270Z,98980.09
2022-10-11T00:50:31.820Z,98980.19
2022-10-11T00:53:34.819Z,98970.56
2022-10-11T00:56:39.228Z,98975.91
2022-10-11T00:59:45.084Z,98980.47
2022-10-11T01:02:47.619Z,98976.81
2022-10-11T01:05:50.662Z,98967.09
2022-10-11T01:08:53.364Z,98969.84
2022-10-11T01:11:58.358Z,98969.84
2022-10-11T01:15:26.065Z,98955.00
2022-10-11T01:18:35.817Z,98952.41
2022-10-11T01:21:57.906Z,98964.97
2022-10-11T01:25:03.630Z,98967.78
2022-10-11T01:28:24.432Z,98970.56
2022-10-11T01:31:33.199Z,98972.50
2022-10-11T01:34:44.479Z,98970.00
2022-10-11T01:37:54.045Z,98963.78
2022-10-11T01:41:00.099Z,98964.69
2022-10-11T01:44:03.304Z,98964.69
2022-10-11T01:47:05.903Z,98954.06
2022-10-11T01:50:49.872Z,98932.09
2022-10-11T01:54:04.587Z,98962.19
2022-10-11T01:57:16.626Z,98962.25
2022-10-11T02:00:22.967Z,98961.25
2022-10-11T02:03:36.354Z,98963.94
2022-10-11T02:06:46.987Z,98965.00
2022-10-11T02:10:07.324Z,98955.31
2022-10-11T02:13:15.465Z,98941.47
2022-10-11T02:16:20.688Z,98955.72
2022-10-11T02:19:29.257Z,98957.72
2022-10-11T02:22:35.832Z,98962.25
2022-10-11T02:25:38.971Z,98954.34
2022-10-11T02:28:43.233Z,98936.06
2022-10-11T02:31:46.244Z,98954.56
2022-10-11T02:34:53.881Z,98930.78
2022-10-11T02:37:58.677Z,98935.94
2022-10-11T02:41:08.862Z,98943.09
2022-10-11T02:44:16.405Z,98944.09
2022-10-11T02:47:19.225Z,98943.31
2022-10-11T02:50:22.994Z,98952.31
2022-10-11T02:53:26.995Z,98948.87
2022-10-11T02:56:29.566Z,98961.44
2022-10-11T02:59:32.575Z,98958.75
2022-10-11T03:02:35.399Z,98958.78
2022-10-11T03:05:41.538Z,98964.13
2022-10-11T03:08:44.148Z,98962.25
2022-10-11T03:11:46.908Z,98962.25
2022-10-11T03:14:49.380Z,98972.09
2022-10-11T03:17:52.242Z,98964.91
2022-10-11T03:20:54.883Z,98962.25
2022-10-11T03:23:57.790Z,98965.03
2022-10-11T03:27:00.247Z,98967.69
2022-10-11T03:30:04.207Z,98965.81
2022-10-11T03:33:08.095Z,98957.63
2022-10-11T03:36:10.834Z,98965.53
2022-10-11T03:39:13.348Z,98961.75
2022-10-11T03:42:16.891Z,98965.22
2022-10-11T03:45:19.603Z,98959.84
2022-10-11T03:48:22.544Z,98960.50
2022-10-11T03:51:25.110Z,98949.97
2022-10-11T03:54:27.981Z,98963.84
2022-10-11T03:57:30.581Z,98951.47
2022-10-11T04:00:34.199Z,98965.37
2022-10-11T04:03:37.281Z,98964.50
2022-10-11T04:06:39.837Z,98971.72
2022-10-11T04:09:43.263Z,98969.94
2022-10-11T04:12:46.235Z,98977.16
2022-10-11T04:15:49.024Z,98977.19
2022-10-11T04:18:51.559Z,98979.91
2022-10-11T04:21:54.346Z,98978.06
2022-10-11T04:24:57.069Z,98979.03
2022-10-11T04:27:59.981Z,98962.44
2022-10-11T04:31:04.289Z,98990.13
2022-10-11T04:34:07.262Z,98991.16
2022-10-11T04:37:09.928Z,98992.03
2022-10-11T04:40:13.292Z,98988.34
2022-10-11T04:43:16.816Z,98971.66
2022-10-11T04:46:19.780Z,98990.94
2022-10-11T04:49:22.650Z,98991.00
2022-10-11T04:52:26.154Z,98995.72
2022-10-11T04:55:29.352Z,99001.47
2022-10-11T04:58:33.520Z,98988.84
2022-10-11T05:01:36.083Z,98982.63
2022-10-11T05:04:39.314Z,98996.81
2022-10-11T05:07:42.048Z,99001.25
2022-10-11T05:10:56.722Z,98994.00
2022-10-11T05:13:59.401Z,98991.00
2022-10-11T05:17:02.647Z,98988.25
2022-10-11T05:20:06.010Z,98995.28
2022-10-11T05:23:08.875Z,98980.22
2022-10-11T05:26:11.649Z,99000.97
2022-10-11T05:29:14.394Z,98993.28
2022-10-11T05:32:16.862Z,98997.22
2022-10-11T05:35:19.684Z,99001.87
2022-10-11T05:38:22.870Z,98999.25
2022-10-11T05:41:25.575Z,99001.53
2022-10-11T05:44:28.138Z,98993.19
2022-10-11T05:47:31.042Z,99001.63
2022-10-11T05:50:33.775Z,99005.44
2022-10-11T05:53:37.756Z,99002.09
2022-10-11T05:56:40.327Z,98999.56
2022-10-11T05:59:43.233Z,98954.84
2022-10-11T06:02:45.759Z,99006.66
2022-10-11T06:05:51.214Z,99017.53
2022-10-11T06:08:55.832Z,99021.91
2022-10-11T06:11:58.718Z,99029.06
2022-10-11T06:15:01.183Z,99028.06
2022-10-11T06:18:05.356Z,99036.00
2022-10-11T06:21:07.818Z,99037.59
2022-10-11T06:24:10.722Z,99032.09
2022-10-11T06:27:13.246Z,99035.59
2022-10-11T06:30:16.168Z,99040.47
2022-10-11T06:33:18.974Z,99046.41
2022-10-11T06:36:21.838Z,99045.16
2022-10-11T06:39:24.544Z,99044.19
2022-10-11T06:42:27.360Z,99044.09
2022-10-11T06:45:30.195Z,99054.47
2022-10-11T06:48:34.916Z,99052.47
2022-10-11T06:51:37.369Z,99055.53
2022-10-11T06:54:44.592Z,99061.25
2022-10-11T06:57:47.354Z,99063.06
2022-10-11T07:00:50.212Z,99068.03
2022-10-11T07:03:54.351Z,99075.81
2022-10-11T07:06:57.173Z,99060.44
2022-10-11T07:09:59.785Z,99069.72
2022-10-11T07:13:04.765Z,99077.59
2022-10-11T07:16:10.379Z,99078.06
2022-10-11T07:19:13.187Z,99079.37
2022-10-11T07:22:15.760Z,99069.78
2022-10-11T07:25:18.525Z,99078.63
2022-10-11T07:28:22.273Z,99077.59
2022-10-11T07:31:25.887Z,99082.38
2022-10-11T07:34:28.471Z,99080.19
2022-10-11T07:37:31.262Z,99078.50
2022-10-11T07:40:42.914Z,99062.66
2022-10-11T07:43:47.880Z,99068.31
2022-10-11T07:46:50.389Z,99068.69
2022-10-11T07:49:53.193Z,99067.62
2022-10-11T07:52:55.586Z,99071.94
2022-10-11T07:56:02.333Z,99065.84
2022-10-11T07:59:05.460Z,99084.50
2022-10-11T08:02:13.752Z,99088.06
2022-10-11T08:05:16.663Z,99086.34
2022-10-11T08:08:19.568Z,99094.81
2022-10-11T08:11:24.651Z,99097.12
2022-10-11T08:14:27.128Z,99096.59
2022-10-11T08:17:29.822Z,99090.91
2022-10-11T08:20:33.228Z,99092.91
2022-10-11T08:23:36.172Z,99091.34
2022-10-11T08:26:38.709Z,99096.31
2022-10-11T08:29:41.498Z,99095.25
2022-10-11T08:32:43.977Z,99096.66
2022-10-11T08:35:47.294Z,99095.25
2022-10-11T08:38:50.594Z,99096.63
2022-10-11T08:41:55.847Z,99096.00
2022-10-11T08:45:11.111Z,99093.87
2022-10-11T08:48:19.126Z,99107.19
2022-10-11T08:51:27.742Z,99102.25
2022-10-11T08:54:39.809Z,99087.56
2022-10-11T08:57:45.644Z,99105.25
2022-10-11T09:00:52.538Z,99101.06
2022-10-11T09:03:55.346Z,99100.88
2022-10-11T09:07:16.695Z,99097.38
2022-10-11T09:10:40.740Z,99103.50
2022-10-11T09:13:59.776Z,99108.19
2022-10-11T09:17:02.166Z,99104.75
2022-10-11T09:20:16.769Z,99097.72
2022-10-11T09:23:56.670Z,99101.16
2022-10-11T09:27:13.157Z,99103.44
2022-10-11T09:30:18.403Z,99098.47
2022-10-11T09:33:32.352Z,99110.47
2022-10-11T09:36:42.042Z,99103.03
2022-10-11T09:39:51.406Z,99106.81
2022-10-11T09:42:53.862Z,99107.84
2022-10-11T09:45:56.818Z,99102.37
2022-10-11T09:49:02.428Z,99101.09
2022-10-11T09:52:09.809Z,99105.56
2022-10-11T09:55:41.548Z,99108.81
2022-10-11T09:58:44.384Z,99111.50
2022-10-11T10:01:47.041Z,99108.13
2022-10-11T10:05:14.814Z,99113.22
2022-10-11T10:08:23.428Z,99114.66
2022-10-11T10:11:28.723Z,99092.41
2022-10-11T10:14:31.197Z,99106.66
2022-10-11T10:17:34.623Z,99119.56
2022-10-11T10:20:38.008Z,99106.12
2022-10-11T10:23:42.263Z,99107.41
2022-10-11T10:27:04.683Z,99096.16
2022-10-11T10:30:07.397Z,99114.75
2022-10-11T10:33:11.631Z,99110.66
2022-10-11T10:36:19.260Z,99109.00
2022-10-11T10:39:32.507Z,99101.31
2022-10-11T10:42:35.304Z,99102.97
2022-10-11T10:45:50.067Z,99100.09
2022-10-11T10:49:34.514Z,99108.53
2022-10-11T10:52:53.081Z,99102.69
2022-10-11T10:56:17.531Z,99099.47
2022-10-11T10:59:37.147Z,99099.38
2022-10-11T11:03:02.053Z,99096.44
2022-10-11T11:06:08.196Z,99098.91
2022-10-11T11:10:02.789Z,99094.22
2022-10-11T11:13:17.102Z,99093.66
2022-10-11T11:16:24.146Z,99089.47
2022-10-11T11:19:53.949Z,99072.25
2022-10-11T11:23:10.324Z,99084.72
2022-10-11T11:26:24.174Z,99087.88
2022-10-11T11:29:43.621Z,99080.97
2022-10-11T11:33:12.141Z,99077.53
2022-10-11T11:36:20.841Z,99082.56
2022-10-11T11:39:50.561Z,99076.16
2022-10-11T11:43:00.815Z,99083.81
2022-10-11T11:46:09.638Z,99084.38
2022-10-11T11:49:28.720Z,99077.38
2022-10-11T11:52:39.097Z,99079.50
2022-10-11T11:55:49.291Z,99059.94
2022-10-11T11:58:54.956Z,99069.53
2022-10-11T12:02:18.927Z,99076.03
2022-10-11T12:05:25.298Z,99075.75
2022-10-11T12:08:32.128Z,99078.16
2022-10-11T12:11:37.983Z,99076.22
2022-10-11T12:14:41.179Z,99073.13
2022-10-11T12:17:53.148Z,99076.63
2022-10-11T12:21:08.286Z,99069.84
2022-10-11T12:24:20.481Z,99062.87
2022-10-11T12:27:37.487Z,99061.50
2022-10-11T12:30:47.064Z,99061.78
2022-10-11T12:33:53.947Z,99050.16
2022-10-11T12:36:56.735Z,99057.00
2022-10-11T12:39:59.789Z,99059.47
2022-10-11T12:43:24.487Z,99052.72
2022-10-11T12:46:31.111Z,99056.63
2022-10-11T12:49:42.962Z,99068.34
2022-10-11T12:53:03.547Z,99056.28
2022-10-11T12:56:15.437Z,99059.94
2022-10-11T12:59:22.451Z,99048.31
2022-10-11T13:02:52.073Z,99055.75
2022-10-11T13:06:00.438Z,99052.84
2022-10-11T13:09:21.125Z,99048.84
2022-10-11T13:12:24.244Z,99051.09
2022-10-11T13:15:28.731Z,99048.87
2022-10-11T13:18:31.387Z,99038.38
2022-10-11T13:21:36.776Z,99040.37
2022-10-11T13:24:40.601Z,99045.44
2022-10-11T13:27:43.671Z,99056.63
2022-10-11T13:30:57.363Z,99049.00
2022-10-11T13:34:00.159Z,99050.47
2022-10-11T13:37:03.002Z,99045.50
2022-10-11T13:40:06.729Z,99052.25
2022-10-11T13:43:09.505Z,99049.72
2022-10-11T13:46:21.162Z,99053.38
2022-10-11T13:49:37.082Z,99056.84
2022-10-11T13:52:58.122Z,99051.97
2022-10-11T13:56:04.361Z,99046.19
2022-10-11T13:59:07.362Z,99039.00
2022-10-11T14:02:21.683Z,99048.97
2022-10-11T14:05:40.341Z,99048.84
2022-10-11T14:08:48.344Z,99040.87
2022-10-11T14:11:51.210Z,99051.94
2022-10-11T14:14:53.762Z,99055.41
2022-10-11T14:17:57.397Z,99052.12
2022-10-11T14:21:27.932Z,99053.78
2022-10-11T14:24:30.727Z,99054.41
2022-10-11T14:27:33.342Z,99057.09
2022-10-11T14:30:36.251Z,99056.84
2022-10-11T14:33:38.876Z,99053.66
2022-10-11T14:36:41.651Z,99051.75
2022-10-11T14:39:46.103Z,99053.94
2022-10-11T14:42:49.310Z,99056.37
2022-10-11T14:45:51.894Z,99053.12
2022-10-11T14:48:56.596Z,99055.06
2022-10-11T14:51:59.546Z,99053.88
2022-10-11T14:55:02.332Z,99053.50
2022-10-11T14:58:06.429Z,99053.72
2022-10-11T15:01:14.086Z,99057.63
2022-10-11T15:04:17.798Z,99043.19
2022-10-11T15:07:20.549Z,99050.56
2022-10-11T15:10:29.667Z,99043.50
2022-10-11T15:13:33.113Z,99044.84
2022-10-11T15:16:36.242Z,99047.97
2022-10-11T15:19:39.755Z,99045.72
2022-10-11T15:22:43.706Z,99052.41
2022-10-11T15:25:46.545Z,99050.19
2022-10-11T15:28:50.030Z,99066.84
2022-10-11T15:31:52.966Z,99069.88
2022-10-11T15:34:55.510Z,99062.19
2022-10-11T15:37:59.506Z,99073.34
2022-10-11T15:41:02.056Z,99073.97
2022-10-11T15:44:05.088Z,99080.72
2022-10-11T15:47:07.550Z,99076.44
2022-10-11T15:50:18.983Z,99076.88
2022-10-11T15:53:24.828Z,99080.91
2022-10-11T15:56:32.913Z,99077.88
2022-10-11T15:59:37.285Z,99078.56
2022-10-11T16:02:40.158Z,99080.94
2022-10-11T16:05:43.609Z,99091.25
2022-10-11T16:08:46.163Z,99087.09
2022-10-11T16:11:49.031Z,99091.31
2022-10-11T16:14:51.644Z,99093.37
2022-10-11T16:17:54.699Z,99092.06
2022-10-11T16:20:57.719Z,99107.69
2022-10-11T16:24:00.574Z,99097.34
2022-10-11T16:27:03.208Z,99111.91
2022-10-11T16:30:06.472Z,99114.09
2022-10-11T16:33:09.603Z,99108.78
2022-10-11T16:36:35.995Z,99097.69
2022-10-11T16:39:39.583Z,99118.47
2022-10-11T16:42:42.399Z,99115.31
2022-10-11T16:45:44.918Z,99115.94
2022-10-11T16:48:48.122Z,99119.59
2022-10-11T16:51:52.099Z,99115.16
2022-10-11T16:54:55.177Z,99124.41
2022-10-11T16:57:57.639Z,99121.00
2022-10-11T17:01:03.653Z,99125.94
2022-10-11T17:04:06.203Z,99129.78
2022-10-11T17:07:12.459Z,99122.25
2022-10-11T17:10:15.063Z,99120.19
2022-10-11T17:13:17.960Z,99133.97
2022-10-11T17:16:21.768Z,99125.34
2022-10-11T17:19:24.613Z,99133.25
2022-10-11T17:22:29.560Z,99125.16
2022-10-11T17:25:32.577Z,99131.72
2022-10-11T17:28:36.077Z,99132.78
2022-10-11T17:31:39.163Z,99138.28
2022-10-11T17:34:41.837Z,99134.91
2022-10-11T17:37:44.827Z,99144.09
2022-10-11T17:40:47.909Z,99135.53
2022-10-11T17:43:50.927Z,99138.97
2022-10-11T17:46:53.435Z,99144.38
2022-10-11T17:49:56.402Z,99142.69
2022-10-11T17:52:59.471Z,99143.81
2022-10-11T17:56:07.813Z,99141.22
2022-10-11T17:59:17.003Z,99145.06
2022-10-11T18:02:19.996Z,99149.09
2022-10-11T18:05:22.818Z,99144.88
2022-10-11T18:08:25.556Z,99146.03
2022-10-11T18:11:29.151Z,99143.22
2022-10-11T18:14:31.729Z,99153.09
2022-10-11T18:17:34.545Z,99150.75
2022-10-11T18:20:37.539Z,99155.44
2022-10-11T18:23:41.047Z,99150.47
2022-10-11T18:26:47.035Z,99164.44
2022-10-11T18:29:49.875Z,99147.09
2022-10-11T18:32:52.470Z,99159.56
2022-10-11T18:36:04.791Z,99161.38
2022-10-11T18:39:13.967Z,99113.84
2022-10-11T18:42:17.980Z,99154.41
2022-10-11T18:45:21.071Z,99155.59
2022-10-11T18:48:23.996Z,99156.69
2022-10-11T18:51:29.415Z,99157.13
2022-10-11T18:54:32.166Z,99168.03
2022-10-11T18:57:34.968Z,99163.44
2022-10-11T19:00:41.054Z,99159.19
2022-10-11T19:03:45.800Z,99155.59
2022-10-11T19:06:49.039Z,99155.66
2022-10-11T19:09:51.782Z,99141.59
2022-10-11T19:12:54.739Z,99161.97
2022-10-11T19:16:06.551Z,99155.53
2022-10-11T19:19:11.819Z,99165.47
2022-10-11T19:22:14.459Z,99160.19
2022-10-11T19:25:17.419Z,99159.47
2022-10-11T19:28:21.430Z,99166.91
2022-10-11T19:31:24.860Z,99169.81
2022-10-11T19:34:28.894Z,99169.09
2022-10-11T19:37:31.969Z,99174.56
2022-10-11T19:40:38.044Z,99174.56
2022-10-11T19:43:41.050Z,99174.91
2022-10-11T19:46:51.481Z,99169.84
2022-10-11T19:49:55.444Z,99151.81
2022-10-11T19:52:57.990Z,99176.84
2022-10-11T19:56:09.391Z,99178.87
2022-10-11T19:59:13.139Z,99172.75
2022-10-11T20:02:16.667Z,99174.75
2022-10-11T20:05:19.495Z,99172.91
2022-10-11T20:08:23.314Z,99163.19
2022-10-11T20:11:26.214Z,99174.53
2022-10-11T20:14:28.744Z,99137.25
2022-10-11T20:17:50.134Z,99166.66
2022-10-11T20:21:01.267Z,99175.25
2022-10-11T20:24:04.663Z,99173.22
2022-10-11T20:27:07.202Z,99158.59
2022-10-11T20:30:10.917Z,99177.72
2022-10-11T20:33:13.626Z,99153.59
2022-10-11T20:36:18.673Z,99167.38
2022-10-11T20:39:21.878Z,99160.94
2022-10-11T20:42:28.963Z,99174.19
2022-10-11T20:45:32.237Z,99173.25
2022-10-11T20:48:36.093Z,99182.31
2022-10-11T20:51:41.501Z,99179.53
2022-10-11T20:54:44.471Z,99188.50
2022-10-11T20:57:46.922Z,99189.44
2022-10-11T21:00:49.826Z,99185.91
2022-10-11T21:03:52.462Z,99192.31
2022-10-11T21:06:55.301Z,99193.34
2022-10-11T21:09:58.159Z,99193.63
2022-10-11T21:13:01.439Z,99194.44
2022-10-11T21:16:11.212Z,99198.31
2022-10-11T21:19:15.366Z,99201.19
2022-10-11T21:22:17.848Z,99203.16
2022-10-11T21:25:20.944Z,99195.19
2022-10-11T21:28:23.672Z,99195.38
2022-10-11T21:31:29.730Z,99193.78
2022-10-11T21:34:36.156Z,99200.22
2022-10-11T21:37:39.031Z,99181.84
2022-10-11T21:40:41.748Z,99192.41
2022-10-11T21:43:45.248Z,99198.78
2022-10-11T21:47:06.099Z,99190.38
2022-10-11T21:50:10.249Z,99192.16
2022-10-11T21:53:12.750Z,99191.25
2022-10-11T21:56:15.905Z,99194.69
2022-10-11T21:59:18.387Z,99176.16
2022-10-11T22:02:21.220Z,99191.06
2022-10-11T22:05:24.463Z,99185.53
2022-10-11T22:08:26.952Z,99194.25
2022-10-11T22:11:29.816Z,99192.28
2022-10-11T22:14:32.494Z,99194.78
2022-10-11T22:17:35.321Z,99197.28
2022-10-11T22:20:37.899Z,99197.34
2022-10-11T22:23:43.012Z,99185.94
2022-10-11T22:26:45.551Z,99198.50
2022-10-11T22:29:48.472Z,99191.34
2022-10-11T22:32:51.771Z,99191.25
2022-10-11T22:35:56.012Z,99188.62
2022-10-11T22:38:59.673Z,99179.91
2022-10-11T22:42:02.592Z,99191.81
2022-10-11T22:45:05.483Z,99200.00
2022-10-11T22:48:08.699Z,99194.63
2022-10-11T22:51:11.318Z,99198.31
2022-10-11T22:54:14.103Z,99194.63
2022-10-11T22:57:16.639Z,99201.09
2022-10-11T23:00:21.315Z,99176.44
2022-10-11T23:03:24.122Z,99199.53
2022-10-11T23:06:27.118Z,99200.47
2022-10-11T23:09:31.045Z,99195.09
2022-10-11T23:12:34.026Z,99195.19
2022-10-11T23:15:40.480Z,99190.94
2022-10-11T23:18:43.510Z,99191.94
2022-10-11T23:21:46.651Z,99192.19
2022-10-11T23:24:49.474Z,99204.97
2022-10-11T23:27:52.050Z,99198.81
2022-10-11T23:30:54.834Z,99203.78
2022-10-11T23:33:57.624Z,99216.69
2022-10-11T23:37:01.607Z,99215.91
2022-10-11T23:40:04.761Z,99205.38
2022-10-11T23:43:07.600Z,99206.38
2022-10-11T23:46:10.138Z,99211.66
2022-10-11T23:49:13.356Z,99209.84
2022-10-11T23:52:16.114Z,99194.94
2022-10-11T23:55:19.171Z,99208.06
2022-10-11T23:58:21.829Z,99216.25
